Aérodrome :
LOGIN :

S'inscrire | Disclaimer

   EN    FR    IT 

 










Légende :    VFR   VFR Marginal   IFR   IFR Intensif   IFR Très Intensif
Visi : 
Plafond : 
>= 8 km
>= 3000ft
5 à 8 km
1000 à 3000 ft
1500m à 5 km
500 à 1000 ft
800 à 1500m
200 à 500 ft
< 800m
< 200 ft
Symboles :   Orages  Brouillard  Fortes neiges  Fortes précipitations  Vent > 20 kt
SIGMETs :   Divers  Orages  Givrage  Turbulence  Onde Orograph.  Cendres Volcan.







- Altitude de l'aérodrome : 39 ft
- Code IATA : ANR


EBAW - Anvers / Antwerpen Deurne

DERNIER METAR :
  • 280720Z 22018G31KT 9999 BKN024 BKN030 05/00 Q0989 NOSIG

METARs EXPIRÉS :
  • 280650Z 22016KT 9999 SCT023 BKN031 05/00 Q0989 NOSIG
  • 280620Z 21017G28KT 180V240 9999 SCT026 BKN031 05/00 Q0989 NOSIG
  • 280550Z 21016KT 9999 SCT025 BKN033 05/00 Q0988 NOSIG
  • 280520Z AUTO 21017G28KT 180V240 9999 // BKN024/// OVC029/// 05/00 Q0988
  • 280450Z AUTO 21015KT 180V240 9999 // SCT025/// OVC028/// 05/00 Q0988

TAF TAF EBAW
Valide du 28 à 06h jusqu'au 28 à 15h UTC


280500Z 2806/2815 22015G25KT 9999 SCT020 SCT035
PROB30
TEMPO 2806/2810 22025G35KT 3500 SHRA SHRAGS BKN007 BKN014CB
BECMG 2810/2813 24012KT
PROB30
TEMPO 2810/2815 SHRA BKN014TCU
Pas de NOTAMs connus pour ce terrain.



MET'MAP, la Météo Aéronautique d'un coup d'oeil ! - Copyright ORBIFLY Décembre 2007 - Disclaimer

ORBIFLY MET'MAP TEAM :

Programmation & Développement : Alexandra Zaïnal
Conception & Développement : Baudouin d'Aumeries
Co-Programmation & Développement : Marc-Olivier Méhu
Soutien technique & logistique : Manuel Goepfert

Contact : metmap@orbifly.com




SOURCES & CREDITS :

   NOAA